Time,TemperatureF,DewpointF,PressureIn,WindDirection,WindDirectionDegrees,WindSpeedMPH,WindSpeedGustMPH,Humidity,HourlyPrecipIn,Conditions,Clouds,dailyrainin,SoftwareType,DateUTC
2013-06-03 00:00:00,67.0,62.7,29.92,North,355,0.0,0.0,86,0.00,,,0.00,WeatherCatV1.24B11,2013-06-03 05:00:00,
2013-06-03 00:01:00,67.5,62.8,29.91,North,355,0.0,0.0,85,0.00,,,0.00,WeatherCatV1.15B25,2013-06-03 05:01:00,
2013-06-03 00:05:00,66.7,62.4,29.93,North,355,0.0,0.0,86,0.00,,,0.00,WeatherCatV1.24B11,2013-06-03 05:05:00,
2013-06-03 00:06:00,67.3,62.6,29.92,North,355,0.0,0.0,85,0.00,,,0.00,WeatherCatV1.15B25,2013-06-03 05:06:00,
2013-06-03 00:10:00,66.5,62.2,29.93,North,355,0.0,0.0,86,0.00,,,0.00,WeatherCatV1.24B11,2013-06-03 05:10:00,
2013-06-03 00:11:00,67.0,62.7,29.92,North,355,0.0,0.0,86,0.00,,,0.00,WeatherCatV1.15B25,2013-06-03 05:11:00,
2013-06-03 00:15:00,66.3,62.3,29.93,North,355,0.0,0.0,87,0.00,,,0.00,WeatherCatV1.24B11,2013-06-03 05:15:00,
2013-06-03 00:16:00,66.7,62.4,29.93,North,355,0.0,0.0,86,0.00,,,0.00,WeatherCatV1.15B25,2013-06-03 05:16:00,
2013-06-03 00:20:00,66.1,62.1,29.93,North,355,0.0,0.0,87,0.00,,,0.00,WeatherCatV1.24B11,2013-06-03 05:20:00,
2013-06-03 00:21:00,66.5,62.2,29.93,North,355,0.0,0.0,86,0.00,,,0.00,WeatherCatV1.15B25,2013-06-03 05:21:00,
2013-06-03 00:25:00,66.1,62.1,29.93,North,355,0.0,0.0,87,0.00,,,0.00,WeatherCatV1.24B11,2013-06-03 05:25:00,
2013-06-03 00:26:00,66.3,62.3,29.93,North,355,0.0,0.0,87,0.00,,,0.00,WeatherCatV1.15B25,2013-06-03 05:26:00,
2013-06-03 00:30:00,66.1,62.1,29.93,North,355,0.0,0.0,87,0.00,,,0.00,WeatherCatV1.24B11,2013-06-03 05:30:00,
2013-06-03 00:31:00,66.1,62.1,29.93,North,355,0.0,0.0,87,0.00,,,0.00,WeatherCatV1.15B25,2013-06-03 05:31:00,
2013-06-03 00:35:00,66.0,62.3,29.93,North,355,0.0,0.0,88,0.00,,,0.00,WeatherCatV1.24B11,2013-06-03 05:35:00,
2013-06-03 00:36:00,66.1,62.1,29.93,North,355,0.0,0.0,87,0.00,,,0.00,WeatherCatV1.15B25,2013-06-03 05:36:00,
2013-06-03 00:40:00,65.9,62.2,29.93,North,355,0.0,0.0,88,0.00,,,0.00,WeatherCatV1.24B11,2013-06-03 05:40:00,
2013-06-03 00:41:00,66.1,62.1,29.93,North,355,0.0,0.0,87,0.00,,,0.00,WeatherCatV1.15B25,2013-06-03 05:41:00,
2013-06-03 00:45:00,65.6,62.0,29.94,North,355,0.0,0.0,88,0.00,,,0.00,WeatherCatV1.24B11,2013-06-03 05:45:00,
2013-06-03 00:46:00,66.0,62.3,29.93,North,355,0.0,0.0,88,0.00,,,0.00,WeatherCatV1.15B25,2013-06-03 05:46:00,
2013-06-03 00:50:00,65.3,61.7,29.94,North,355,0.0,0.0,88,0.00,,,0.00,WeatherCatV1.24B11,2013-06-03 05:50:00,
2013-06-03 00:51:00,65.9,62.2,29.93,North,355,0.0,0.0,88,0.00,,,0.00,WeatherCatV1.15B25,2013-06-03 05:51:00,
2013-06-03 00:55:00,65.2,61.6,29.93,North,355,0.0,0.0,88,0.00,,,0.00,WeatherCatV1.24B11,2013-06-03 05:55:00,
2013-06-03 00:56:00,65.6,61.9,29.94,North,355,0.0,0.0,88,0.00,,,0.00,WeatherCatV1.15B25,2013-06-03 05:56:00,
2013-06-03 01:00:00,65.2,61.6,29.93,North,355,0.0,0.0,88,0.00,,,0.00,WeatherCatV1.24B11,2013-06-03 06:00:00,
2013-06-03 01:01:00,65.4,61.7,29.94,North,355,0.0,0.0,88,0.00,,,0.00,WeatherCatV1.15B25,2013-06-03 06:01:00,
2013-06-03 01:05:00,65.1,61.5,29.93,North,355,0.0,0.0,88,0.00,,,0.00,WeatherCatV1.24B11,2013-06-03 06:05:00,
2013-06-03 01:06:00,65.2,61.5,29.93,North,355,0.0,0.0,88,0.00,,,0.00,WeatherCatV1.15B25,2013-06-03 06:06:00,
2013-06-03 01:10:00,65.0,61.4,29.93,North,355,0.0,0.0,88,0.00,,,0.00,WeatherCatV1.24B11,2013-06-03 06:10:00,
2013-06-03 01:11:00,65.2,61.5,29.93,North,355,0.0,0.0,88,0.00,,,0.00,WeatherCatV1.15B25,2013-06-03 06:11:00,
2013-06-03 01:15:00,64.8,61.2,29.93,North,355,0.0,0.0,88,0.00,,,0.00,WeatherCatV1.24B11,2013-06-03 06:15:00,
2013-06-03 01:16:00,65.1,61.5,29.93,North,355,0.0,0.0,88,0.00,,,0.00,WeatherCatV1.15B25,2013-06-03 06:16:00,
2013-06-03 01:20:00,64.7,61.4,29.92,North,355,0.0,0.0,89,0.00,,,0.00,WeatherCatV1.24B11,2013-06-03 06:20:00,
2013-06-03 01:21:00,65.0,61.4,29.93,North,355,0.0,0.0,88,0.00,,,0.00,WeatherCatV1.15B25,2013-06-03 06:21:00,
2013-06-03 01:25:00,64.6,61.3,29.92,North,355,0.0,0.0,89,0.00,,,0.00,WeatherCatV1.24B11,2013-06-03 06:25:00,
2013-06-03 01:26:00,64.9,61.3,29.93,North,355,0.0,0.0,88,0.00,,,0.00,WeatherCatV1.15B25,2013-06-03 06:26:00,
2013-06-03 01:30:00,64.5,61.2,29.92,North,355,0.0,0.0,89,0.00,,,0.00,WeatherCatV1.24B11,2013-06-03 06:30:00,
2013-06-03 01:31:00,64.8,61.5,29.92,North,355,0.0,0.0,89,0.00,,,0.00,WeatherCatV1.15B25,2013-06-03 06:31:00,
2013-06-03 01:35:00,64.4,61.1,29.92,North,355,0.0,0.0,89,0.00,,,0.00,WeatherCatV1.24B11,2013-06-03 06:35:00,
2013-06-03 01:36:00,64.6,61.3,29.92,North,355,0.0,0.0,89,0.00,,,0.00,WeatherCatV1.15B25,2013-06-03 06:36:00,
2013-06-03 01:40:00,64.3,61.0,29.92,North,355,0.0,0.0,89,0.00,,,0.00,WeatherCatV1.24B11,2013-06-03 06:40:00,
2013-06-03 01:41:00,64.5,61.2,29.92,North,355,0.0,0.0,89,0.00,,,0.00,WeatherCatV1.15B25,2013-06-03 06:41:00,
2013-06-03 01:45:00,64.3,61.0,29.92,North,355,0.0,0.0,89,0.00,,,0.00,WeatherCatV1.24B11,2013-06-03 06:45:00,
2013-06-03 01:46:00,64.4,61.1,29.92,North,355,0.0,0.0,89,0.00,,,0.00,WeatherCatV1.15B25,2013-06-03 06:46:00,
2013-06-03 01:50:00,64.2,60.9,29.92,North,355,0.0,0.0,89,0.00,,,0.00,WeatherCatV1.24B11,2013-06-03 06:50:00,
2013-06-03 01:51:00,64.3,61.0,29.92,North,355,0.0,0.0,89,0.00,,,0.00,WeatherCatV1.15B25,2013-06-03 06:51:00,
2013-06-03 01:55:00,64.1,60.8,29.92,North,355,0.0,0.0,89,0.00,,,0.00,WeatherCatV1.24B11,2013-06-03 06:55:00,
2013-06-03 01:56:00,64.2,60.9,29.92,North,355,0.0,0.0,89,0.00,,,0.00,WeatherCatV1.15B25,2013-06-03 06:56:00,
2013-06-03 02:00:00,64.0,60.7,29.93,North,355,0.0,0.0,89,0.00,,,0.00,WeatherCatV1.24B11,2013-06-03 07:00:00,
2013-06-03 02:01:00,64.2,60.9,29.92,North,355,0.0,0.0,89,0.00,,,0.00,WeatherCatV1.15B25,2013-06-03 07:01:00,
2013-06-03 02:05:00,63.9,60.6,29.93,North,355,0.0,0.0,89,0.00,,,0.00,WeatherCatV1.24B11,2013-06-03 07:05:00,
2013-06-03 02:06:00,64.1,60.8,29.92,North,355,0.0,0.0,89,0.00,,,0.00,WeatherCatV1.15B25,2013-06-03 07:06:00,
2013-06-03 02:10:00,63.9,60.6,29.93,North,355,0.0,0.0,89,0.00,,,0.00,WeatherCatV1.24B11,2013-06-03 07:10:00,
2013-06-03 02:11:00,64.0,60.7,29.93,North,355,0.0,0.0,89,0.00,,,0.00,WeatherCatV1.15B25,2013-06-03 07:11:00,
2013-06-03 02:15:00,64.0,61.0,29.92,North,355,0.0,0.0,90,0.00,,,0.00,WeatherCatV1.24B11,2013-06-03 07:15:00,
2013-06-03 02:16:00,63.9,60.6,29.93,North,355,0.0,0.0,89,0.00,,,0.00,WeatherCatV1.15B25,2013-06-03 07:16:00,
2013-06-03 02:20:00,64.0,61.0,29.92,North,355,0.0,0.0,90,0.00,,,0.00,WeatherCatV1.24B11,2013-06-03 07:20:00,
2013-06-03 02:21:00,63.9,60.6,29.93,North,355,0.0,0.0,89,0.00,,,0.00,WeatherCatV1.15B25,2013-06-03 07:21:00,
2013-06-03 02:25:00,63.9,60.9,29.92,North,355,0.0,0.0,90,0.00,,,0.00,WeatherCatV1.24B11,2013-06-03 07:25:00,
2013-06-03 02:26:00,64.0,61.0,29.92,North,355,0.0,0.0,90,0.00,,,0.00,WeatherCatV1.15B25,2013-06-03 07:26:00,
2013-06-03 02:30:00,63.8,60.8,29.92,North,355,0.0,0.0,90,0.00,,,0.00,WeatherCatV1.24B11,2013-06-03 07:30:00,
2013-06-03 02:31:00,64.0,61.0,29.92,North,355,0.0,0.0,90,0.00,,,0.00,WeatherCatV1.15B25,2013-06-03 07:31:00,
2013-06-03 02:35:00,63.8,60.5,29.92,North,355,0.0,0.0,89,0.00,,,0.00,WeatherCatV1.24B11,2013-06-03 07:35:00,
2013-06-03 02:36:00,64.0,61.0,29.92,North,355,0.0,0.0,90,0.00,,,0.00,WeatherCatV1.15B25,2013-06-03 07:36:00,
2013-06-03 02:40:00,63.7,60.7,29.92,North,355,0.0,0.0,90,0.00,,,0.00,WeatherCatV1.24B11,2013-06-03 07:40:00,
2013-06-03 02:41:00,63.9,60.9,29.92,North,355,0.0,0.0,90,0.00,,,0.00,WeatherCatV1.15B25,2013-06-03 07:41:00,
2013-06-03 02:45:00,63.6,60.6,29.92,North,355,0.0,0.0,90,0.00,,,0.00,WeatherCatV1.24B11,2013-06-03 07:45:00,
2013-06-03 02:46:00,63.8,60.5,29.92,North,355,0.0,0.0,89,0.00,,,0.00,WeatherCatV1.15B25,2013-06-03 07:46:00,
2013-06-03 02:50:00,63.6,60.6,29.92,North,355,0.0,0.0,90,0.00,,,0.00,WeatherCatV1.24B11,2013-06-03 07:50:00,
2013-06-03 02:51:00,63.8,60.8,29.92,North,355,0.0,0.0,90,0.00,,,0.00,WeatherCatV1.15B25,2013-06-03 07:51:00,
2013-06-03 02:55:00,63.5,60.5,29.92,North,355,0.0,0.0,90,0.00,,,0.00,WeatherCatV1.24B11,2013-06-03 07:55:00,
2013-06-03 02:56:00,63.7,60.7,29.92,North,355,0.0,0.0,90,0.00,,,0.00,WeatherCatV1.15B25,2013-06-03 07:56:00,
2013-06-03 03:00:00,63.4,60.4,29.92,North,355,0.0,0.0,90,0.00,,,0.00,WeatherCatV1.24B11,2013-06-03 08:00:00,
2013-06-03 03:01:00,63.6,60.6,29.92,North,355,0.0,0.0,90,0.00,,,0.00,WeatherCatV1.15B25,2013-06-03 08:01:00,
2013-06-03 03:05:00,63.3,60.3,29.92,North,355,0.0,0.0,90,0.00,,,0.00,WeatherCatV1.24B11,2013-06-03 08:05:00,
2013-06-03 03:06:00,63.5,60.5,29.92,North,355,0.0,0.0,90,0.00,,,0.00,WeatherCatV1.15B25,2013-06-03 08:06:00,
2013-06-03 03:10:00,63.2,60.2,29.92,North,355,0.0,0.0,90,0.00,,,0.00,WeatherCatV1.24B11,2013-06-03 08:10:00,
2013-06-03 03:11:00,63.4,60.4,29.92,North,355,0.0,0.0,90,0.00,,,0.00,WeatherCatV1.15B25,2013-06-03 08:11:00,
2013-06-03 03:15:00,63.2,60.2,29.92,North,355,0.0,0.0,90,0.00,,,0.00,WeatherCatV1.24B11,2013-06-03 08:15:00,
2013-06-03 03:16:00,63.3,60.3,29.92,North,355,0.0,0.0,90,0.00,,,0.00,WeatherCatV1.15B25,2013-06-03 08:16:00,
2013-06-03 03:20:00,63.2,60.2,29.92,North,355,0.0,0.0,90,0.00,,,0.00,WeatherCatV1.24B11,2013-06-03 08:20:00,
2013-06-03 03:21:00,63.3,60.3,29.92,North,355,0.0,0.0,90,0.00,,,0.00,WeatherCatV1.15B25,2013-06-03 08:21:00,
2013-06-03 03:25:00,63.2,60.2,29.92,North,355,0.0,0.0,90,0.00,,,0.00,WeatherCatV1.24B11,2013-06-03 08:25:00,
2013-06-03 03:26:00,63.2,60.2,29.92,North,355,0.0,0.0,90,0.00,,,0.00,WeatherCatV1.15B25,2013-06-03 08:26:00,
2013-06-03 03:30:00,63.1,60.1,29.92,North,355,0.0,0.0,90,0.00,,,0.00,WeatherCatV1.24B11,2013-06-03 08:30:00,
2013-06-03 03:31:00,63.2,60.2,29.92,North,355,0.0,0.0,90,0.00,,,0.00,WeatherCatV1.15B25,2013-06-03 08:31:00,
2013-06-03 03:35:00,63.0,60.0,29.92,North,355,0.0,0.0,90,0.00,,,0.00,WeatherCatV1.24B11,2013-06-03 08:35:00,
2013-06-03 03:36:00,63.2,60.2,29.92,North,355,0.0,0.0,90,0.00,,,0.00,WeatherCatV1.15B25,2013-06-03 08:36:00,
2013-06-03 03:40:00,62.9,59.9,29.92,North,355,0.0,0.0,90,0.00,,,0.00,WeatherCatV1.24B11,2013-06-03 08:40:00,
2013-06-03 03:41:00,63.1,60.1,29.92,North,355,0.0,0.0,90,0.00,,,0.00,WeatherCatV1.15B25,2013-06-03 08:41:00,
2013-06-03 03:45:00,62.9,59.9,29.92,North,355,0.0,0.0,90,0.00,,,0.00,WeatherCatV1.24B11,2013-06-03 08:45:00,
2013-06-03 03:46:00,63.0,60.0,29.92,North,355,0.0,0.0,90,0.00,,,0.00,WeatherCatV1.15B25,2013-06-03 08:46:00,
2013-06-03 03:50:00,62.8,59.8,29.92,North,355,0.0,0.0,90,0.00,,,0.00,WeatherCatV1.24B11,2013-06-03 08:50:00,
2013-06-03 03:51:00,62.9,59.9,29.92,North,355,0.0,0.0,90,0.00,,,0.00,WeatherCatV1.15B25,2013-06-03 08:51:00,
2013-06-03 03:55:00,62.7,59.7,29.92,North,355,0.0,0.0,90,0.00,,,0.00,WeatherCatV1.24B11,2013-06-03 08:55:00,
2013-06-03 03:56:00,62.9,59.9,29.92,North,355,0.0,0.0,90,0.00,,,0.00,WeatherCatV1.15B25,2013-06-03 08:56:00,
2013-06-03 04:00:00,62.7,59.7,29.92,North,355,0.0,0.0,90,0.00,,,0.00,WeatherCatV1.24B11,2013-06-03 09:00:00,
2013-06-03 04:01:00,62.8,59.8,29.92,North,355,0.0,0.0,90,0.00,,,0.00,WeatherCatV1.15B25,2013-06-03 09:01:00,
2013-06-03 04:05:00,62.7,59.7,29.92,North,355,0.0,0.0,90,0.00,,,0.00,WeatherCatV1.24B11,2013-06-03 09:05:00,
2013-06-03 04:06:00,62.8,59.8,29.92,North,355,0.0,0.0,90,0.00,,,0.00,WeatherCatV1.15B25,2013-06-03 09:06:00,
2013-06-03 04:10:00,62.6,60.2,29.92,North,355,0.0,0.0,92,0.00,,,0.00,WeatherCatV1.24B11,2013-06-03 09:10:00,
2013-06-03 04:11:00,62.7,59.7,29.92,North,355,0.0,0.0,90,0.00,,,0.00,WeatherCatV1.15B25,2013-06-03 09:11:00,
2013-06-03 04:15:00,62.5,59.5,29.92,North,355,0.0,0.0,90,0.00,,,0.00,WeatherCatV1.24B11,2013-06-03 09:15:00,
2013-06-03 04:16:00,62.7,59.7,29.92,North,355,0.0,0.0,90,0.00,,,0.00,WeatherCatV1.15B25,2013-06-03 09:16:00,
2013-06-03 04:20:00,62.4,59.4,29.92,North,355,0.0,0.0,90,0.00,,,0.00,WeatherCatV1.24B11,2013-06-03 09:20:00,
2013-06-03 04:21:00,62.6,59.6,29.92,North,355,0.0,0.0,90,0.00,,,0.00,WeatherCatV1.15B25,2013-06-03 09:21:00,
2013-06-03 04:25:00,62.3,59.3,29.92,North,355,0.0,0.0,90,0.00,,,0.00,WeatherCatV1.24B11,2013-06-03 09:25:00,
2013-06-03 04:26:00,62.5,59.5,29.92,North,355,0.0,0.0,90,0.00,,,0.00,WeatherCatV1.15B25,2013-06-03 09:26:00,
2013-06-03 04:30:00,62.2,59.2,29.92,North,355,0.0,0.0,90,0.00,,,0.00,WeatherCatV1.24B11,2013-06-03 09:30:00,
2013-06-03 04:31:00,62.4,59.4,29.92,North,355,0.0,0.0,90,0.00,,,0.00,WeatherCatV1.15B25,2013-06-03 09:31:00,
2013-06-03 04:35:00,62.2,59.2,29.92,North,355,0.0,0.0,90,0.00,,,0.00,WeatherCatV1.24B11,2013-06-03 09:35:00,
2013-06-03 04:36:00,62.3,59.3,29.92,North,355,0.0,0.0,90,0.00,,,0.00,WeatherCatV1.15B25,2013-06-03 09:36:00,
2013-06-03 04:40:00,62.2,59.2,29.92,North,355,0.0,0.0,90,0.00,,,0.00,WeatherCatV1.24B11,2013-06-03 09:40:00,
2013-06-03 04:41:00,62.2,59.2,29.92,North,355,0.0,0.0,90,0.00,,,0.00,WeatherCatV1.15B25,2013-06-03 09:41:00,
2013-06-03 04:45:00,62.1,59.1,29.92,North,355,0.0,0.0,90,0.00,,,0.00,WeatherCatV1.24B11,2013-06-03 09:45:00,
2013-06-03 04:46:00,62.2,59.2,29.92,North,355,0.0,0.0,90,0.00,,,0.00,WeatherCatV1.15B25,2013-06-03 09:46:00,
2013-06-03 04:50:00,62.1,59.4,29.92,North,355,0.0,0.0,91,0.00,,,0.00,WeatherCatV1.24B11,2013-06-03 09:50:00,
2013-06-03 04:51:00,62.2,59.2,29.92,North,355,0.0,0.0,90,0.00,,,0.00,WeatherCatV1.15B25,2013-06-03 09:51:00,
2013-06-03 04:55:00,62.3,59.6,29.92,North,355,0.0,0.0,91,0.00,,,0.00,WeatherCatV1.24B11,2013-06-03 09:55:00,
2013-06-03 04:56:00,62.1,59.1,29.92,North,355,0.0,0.0,90,0.00,,,0.00,WeatherCatV1.15B25,2013-06-03 09:56:00,
2013-06-03 05:00:00,62.6,59.9,29.92,North,355,0.0,0.0,91,0.00,,,0.00,WeatherCatV1.24B11,2013-06-03 10:00:00,
2013-06-03 05:01:00,62.1,59.4,29.92,North,355,0.0,0.0,91,0.00,,,0.00,WeatherCatV1.15B25,2013-06-03 10:01:00,
2013-06-03 05:05:00,62.6,59.9,29.92,North,355,0.0,0.0,91,0.00,,,0.00,WeatherCatV1.24B11,2013-06-03 10:05:00,
2013-06-03 05:06:00,62.3,59.6,29.92,North,355,0.0,0.0,91,0.00,,,0.00,WeatherCatV1.15B25,2013-06-03 10:06:00,
2013-06-03 05:10:00,62.7,60.0,29.92,North,355,0.0,0.0,91,0.00,,,0.00,WeatherCatV1.24B11,2013-06-03 10:10:00,
2013-06-03 05:11:00,62.6,59.9,29.92,North,355,0.0,0.0,91,0.00,,,0.00,WeatherCatV1.15B25,2013-06-03 10:11:00,
2013-06-03 05:15:00,62.9,60.2,29.92,North,355,0.0,0.0,91,0.00,,,0.00,WeatherCatV1.24B11,2013-06-03 10:15:00,
2013-06-03 05:16:00,62.7,60.0,29.92,North,355,0.0,0.0,91,0.00,,,0.00,WeatherCatV1.15B25,2013-06-03 10:16:00,
2013-06-03 05:20:00,63.2,60.5,29.93,North,355,0.0,0.0,91,0.00,,,0.00,WeatherCatV1.24B11,2013-06-03 10:20:00,
2013-06-03 05:21:00,62.8,60.1,29.92,North,355,0.0,0.0,91,0.00,,,0.00,WeatherCatV1.15B25,2013-06-03 10:21:00,
2013-06-03 05:25:00,63.6,60.9,29.93,North,355,0.0,0.0,91,0.00,,,0.00,WeatherCatV1.24B11,2013-06-03 10:25:00,
2013-06-03 05:26:00,62.9,60.2,29.92,North,355,0.0,0.0,91,0.00,,,0.00,WeatherCatV1.15B25,2013-06-03 10:26:00,
2013-06-03 05:30:00,63.8,61.1,29.93,North,355,0.0,0.0,91,0.00,,,0.00,WeatherCatV1.24B11,2013-06-03 10:30:00,
2013-06-03 05:31:00,63.2,60.5,29.93,North,355,0.0,0.0,91,0.00,,,0.00,WeatherCatV1.15B25,2013-06-03 10:31:00,
2013-06-03 05:35:00,64.0,61.3,29.94,North,355,0.0,0.0,91,0.00,,,0.00,WeatherCatV1.24B11,2013-06-03 10:35:00,
2013-06-03 05:36:00,63.5,60.8,29.93,North,355,0.0,0.0,91,0.00,,,0.00,WeatherCatV1.15B25,2013-06-03 10:36:00,
2013-06-03 05:40:00,64.2,61.5,29.94,North,355,0.0,0.0,91,0.00,,,0.00,WeatherCatV1.24B11,2013-06-03 10:40:00,
2013-06-03 05:41:00,63.8,61.1,29.93,North,355,0.0,0.0,91,0.00,,,0.00,WeatherCatV1.15B25,2013-06-03 10:41:00,
2013-06-03 05:45:00,64.4,61.7,29.94,North,355,0.0,0.0,91,0.00,,,0.00,WeatherCatV1.24B11,2013-06-03 10:45:00,
2013-06-03 05:46:00,64.0,61.3,29.94,North,355,0.0,0.0,91,0.00,,,0.00,WeatherCatV1.15B25,2013-06-03 10:46:00,
2013-06-03 05:50:00,64.6,61.9,29.94,North,355,0.0,0.0,91,0.00,,,0.00,WeatherCatV1.24B11,2013-06-03 10:50:00,
2013-06-03 05:51:00,64.1,61.4,29.94,North,355,0.0,0.0,91,0.00,,,0.00,WeatherCatV1.15B25,2013-06-03 10:51:00,
2013-06-03 05:55:00,64.7,62.0,29.94,North,355,0.0,0.0,91,0.00,,,0.00,WeatherCatV1.24B11,2013-06-03 10:55:00,
2013-06-03 05:56:00,64.3,61.6,29.94,North,355,0.0,0.0,91,0.00,,,0.00,WeatherCatV1.15B25,2013-06-03 10:56:00,
2013-06-03 06:00:00,64.8,62.1,29.94,North,355,0.0,0.0,91,0.00,,,0.00,WeatherCatV1.24B11,2013-06-03 11:00:00,
2013-06-03 06:01:00,64.6,61.9,29.94,North,355,0.0,0.0,91,0.00,,,0.00,WeatherCatV1.15B25,2013-06-03 11:01:00,
2013-06-03 06:05:00,64.8,62.1,29.94,North,355,0.0,0.0,91,0.00,,,0.00,WeatherCatV1.24B11,2013-06-03 11:05:00,
2013-06-03 06:06:00,64.7,62.0,29.94,North,355,0.0,0.0,91,0.00,,,0.00,WeatherCatV1.15B25,2013-06-03 11:06:00,
2013-06-03 06:10:00,64.9,62.2,29.94,North,355,0.0,0.0,91,0.00,,,0.00,WeatherCatV1.24B11,2013-06-03 11:10:00,
2013-06-03 06:11:00,64.8,62.1,29.94,North,355,0.0,0.0,91,0.00,,,0.00,WeatherCatV1.15B25,2013-06-03 11:11:00,
2013-06-03 06:15:00,64.9,62.2,29.94,North,355,0.0,0.0,91,0.00,,,0.00,WeatherCatV1.24B11,2013-06-03 11:15:00,
2013-06-03 06:16:00,64.8,62.1,29.94,North,355,0.0,0.0,91,0.00,,,0.00,WeatherCatV1.15B25,2013-06-03 11:16:00,
2013-06-03 06:20:00,64.8,62.1,29.94,North,355,0.0,0.0,91,0.00,,,0.00,WeatherCatV1.24B11,2013-06-03 11:20:00,
2013-06-03 06:21:00,64.9,62.2,29.94,North,355,0.0,0.0,91,0.00,,,0.00,WeatherCatV1.15B25,2013-06-03 11:21:00,
2013-06-03 06:25:00,64.7,62.0,29.94,North,355,0.0,0.0,91,0.00,,,0.00,WeatherCatV1.24B11,2013-06-03 11:25:00,
2013-06-03 06:26:00,64.9,62.2,29.94,North,355,0.0,0.0,91,0.00,,,0.00,WeatherCatV1.15B25,2013-06-03 11:26:00,
2013-06-03 06:30:00,64.7,62.0,29.94,North,355,0.0,0.0,91,0.00,,,0.00,WeatherCatV1.24B11,2013-06-03 11:30:00,
2013-06-03 06:31:00,64.8,62.1,29.94,North,355,0.0,0.0,91,0.00,,,0.00,WeatherCatV1.15B25,2013-06-03 11:31:00,
2013-06-03 06:35:00,64.7,62.0,29.94,North,355,0.0,0.0,91,0.00,,,0.00,WeatherCatV1.24B11,2013-06-03 11:35:00,
2013-06-03 06:36:00,64.7,62.0,29.94,North,355,0.0,0.0,91,0.00,,,0.00,WeatherCatV1.15B25,2013-06-03 11:36:00,
2013-06-03 06:40:00,64.9,62.2,29.94,North,355,0.0,0.0,91,0.00,,,0.00,WeatherCatV1.24B11,2013-06-03 11:40:00,
2013-06-03 06:41:00,64.7,62.0,29.94,North,355,0.0,0.0,91,0.00,,,0.00,WeatherCatV1.15B25,2013-06-03 11:41:00,
2013-06-03 06:45:00,65.0,62.6,29.94,North,355,0.0,0.0,92,0.00,,,0.00,WeatherCatV1.24B11,2013-06-03 11:45:00,
2013-06-03 06:46:00,64.7,62.0,29.94,North,355,0.0,0.0,91,0.00,,,0.00,WeatherCatV1.15B25,2013-06-03 11:46:00,
2013-06-03 06:50:00,65.1,62.7,29.95,North,355,0.0,0.0,92,0.00,,,0.00,WeatherCatV1.24B11,2013-06-03 11:50:00,
2013-06-03 06:51:00,64.8,62.1,29.94,North,355,0.0,0.0,91,0.00,,,0.00,WeatherCatV1.15B25,2013-06-03 11:51:00,
2013-06-03 06:55:00,65.3,62.9,29.95,North,355,0.0,0.0,92,0.00,,,0.00,WeatherCatV1.24B11,2013-06-03 11:55:00,
2013-06-03 06:56:00,65.0,62.6,29.94,North,355,0.0,0.0,92,0.00,,,0.00,WeatherCatV1.15B25,2013-06-03 11:56:00,
2013-06-03 07:00:00,65.6,63.2,29.95,North,355,0.0,0.0,92,0.00,,,0.00,WeatherCatV1.24B11,2013-06-03 12:00:00,
2013-06-03 07:01:00,65.1,62.7,29.95,North,355,0.0,0.0,92,0.00,,,0.00,WeatherCatV1.15B25,2013-06-03 12:01:00,
2013-06-03 07:05:00,65.9,63.5,29.95,North,355,0.0,0.0,92,0.00,,,0.00,WeatherCatV1.24B11,2013-06-03 12:05:00,
2013-06-03 07:06:00,65.3,62.9,29.95,North,355,0.0,0.0,92,0.00,,,0.00,WeatherCatV1.15B25,2013-06-03 12:06:00,
2013-06-03 07:10:00,66.1,63.7,29.95,North,355,0.0,1.0,92,0.00,,,0.00,WeatherCatV1.24B11,2013-06-03 12:10:00,
2013-06-03 07:11:00,65.6,63.2,29.95,North,355,0.0,0.0,92,0.00,,,0.00,WeatherCatV1.15B25,2013-06-03 12:11:00,
2013-06-03 07:15:00,66.3,63.9,29.95,North,355,0.0,0.0,92,0.00,,,0.00,WeatherCatV1.24B11,2013-06-03 12:15:00,
2013-06-03 07:16:00,65.9,63.5,29.95,North,355,0.0,0.0,92,0.00,,,0.00,WeatherCatV1.15B25,2013-06-03 12:16:00,
2013-06-03 07:20:00,66.7,64.3,29.95,North,355,0.0,0.0,92,0.00,,,0.00,WeatherCatV1.24B11,2013-06-03 12:20:00,
2013-06-03 07:21:00,66.1,63.7,29.95,North,355,0.0,1.0,92,0.00,,,0.00,WeatherCatV1.15B25,2013-06-03 12:21:00,
2013-06-03 07:25:00,67.2,64.8,29.95,North,355,0.0,0.0,92,0.00,,,0.00,WeatherCatV1.24B11,2013-06-03 12:25:00,
2013-06-03 07:26:00,66.3,63.9,29.95,North,355,0.0,0.0,92,0.00,,,0.00,WeatherCatV1.15B25,2013-06-03 12:26:00,
2013-06-03 07:30:00,67.5,65.1,29.94,North,355,0.0,0.0,92,0.00,,,0.00,WeatherCatV1.24B11,2013-06-03 12:30:00,
2013-06-03 07:31:00,66.7,64.3,29.95,North,355,0.0,0.0,92,0.00,,,0.00,WeatherCatV1.15B25,2013-06-03 12:31:00,
2013-06-03 07:35:00,67.7,65.3,29.94,North,355,0.0,0.0,92,0.00,,,0.00,WeatherCatV1.24B11,2013-06-03 12:35:00,
2013-06-03 07:36:00,67.2,64.8,29.95,North,355,0.0,0.0,92,0.00,,,0.00,WeatherCatV1.15B25,2013-06-03 12:36:00,
2013-06-03 07:40:00,68.1,65.7,29.94,North,355,0.0,0.0,92,0.00,,,0.00,WeatherCatV1.24B11,2013-06-03 12:40:00,
2013-06-03 07:41:00,67.5,65.1,29.94,North,355,0.0,0.0,92,0.00,,,0.00,WeatherCatV1.15B25,2013-06-03 12:41:00,
2013-06-03 07:45:00,68.6,66.2,29.94,North,355,0.0,0.0,92,0.00,,,0.00,WeatherCatV1.24B11,2013-06-03 12:45:00,
2013-06-03 07:46:00,67.7,65.3,29.94,North,355,0.0,0.0,92,0.00,,,0.00,WeatherCatV1.15B25,2013-06-03 12:46:00,
2013-06-03 07:50:00,69.2,66.8,29.94,North,355,0.0,0.0,92,0.00,,,0.00,WeatherCatV1.24B11,2013-06-03 12:50:00,
2013-06-03 07:51:00,68.1,65.7,29.94,North,355,0.0,0.0,92,0.00,,,0.00,WeatherCatV1.15B25,2013-06-03 12:51:00,
2013-06-03 07:55:00,69.6,67.2,29.94,North,355,0.0,0.0,92,0.00,,,0.00,WeatherCatV1.24B11,2013-06-03 12:55:00,
2013-06-03 07:56:00,68.6,66.2,29.94,North,355,0.0,0.0,92,0.00,,,0.00,WeatherCatV1.15B25,2013-06-03 12:56:00,
2013-06-03 08:00:00,70.3,67.9,29.94,North,355,0.0,0.0,92,0.00,,,0.00,WeatherCatV1.24B11,2013-06-03 13:00:00,
2013-06-03 08:01:00,69.2,66.8,29.94,North,355,0.0,0.0,92,0.00,,,0.00,WeatherCatV1.15B25,2013-06-03 13:01:00,
2013-06-03 08:05:00,70.8,68.4,29.94,North,355,0.0,0.0,92,0.00,,,0.00,WeatherCatV1.24B11,2013-06-03 13:05:00,
2013-06-03 08:06:00,69.6,67.2,29.94,North,355,0.0,0.0,92,0.00,,,0.00,WeatherCatV1.15B25,2013-06-03 13:06:00,
2013-06-03 08:10:00,71.2,68.8,29.94,North,355,0.0,0.0,92,0.00,,,0.00,WeatherCatV1.24B11,2013-06-03 13:10:00,
2013-06-03 08:11:00,70.3,67.9,29.94,North,355,0.0,0.0,92,0.00,,,0.00,WeatherCatV1.15B25,2013-06-03 13:11:00,
2013-06-03 08:15:00,71.5,69.0,29.94,North,355,0.0,1.0,92,0.00,,,0.00,WeatherCatV1.24B11,2013-06-03 13:15:00,
2013-06-03 08:16:00,70.9,68.5,29.94,North,355,0.0,0.0,92,0.00,,,0.00,WeatherCatV1.15B25,2013-06-03 13:16:00,
2013-06-03 08:20:00,71.5,69.0,29.94,North,355,0.0,0.0,92,0.00,,,0.00,WeatherCatV1.24B11,2013-06-03 13:20:00,
2013-06-03 08:21:00,71.3,68.8,29.94,North,355,0.0,0.0,92,0.00,,,0.00,WeatherCatV1.15B25,2013-06-03 13:21:00,
2013-06-03 08:25:00,71.5,69.0,29.94,North,355,0.0,0.0,92,0.00,,,0.00,WeatherCatV1.24B11,2013-06-03 13:25:00,
2013-06-03 08:26:00,71.5,69.0,29.94,North,355,0.0,1.0,92,0.00,,,0.00,WeatherCatV1.15B25,2013-06-03 13:26:00,
2013-06-03 08:30:00,71.9,69.4,29.94,North,355,0.0,0.0,92,0.00,,,0.00,WeatherCatV1.24B11,2013-06-03 13:30:00,
2013-06-03 08:31:00,71.5,69.0,29.94,North,355,0.0,0.0,92,0.00,,,0.00,WeatherCatV1.15B25,2013-06-03 13:31:00,
2013-06-03 08:35:00,72.1,69.6,29.94,North,355,0.0,0.0,92,0.00,,,0.00,WeatherCatV1.24B11,2013-06-03 13:35:00,
2013-06-03 08:36:00,71.5,69.0,29.94,North,355,0.0,0.0,92,0.00,,,0.00,WeatherCatV1.15B25,2013-06-03 13:36:00,
2013-06-03 08:40:00,72.8,70.3,29.94,North,355,0.0,0.0,92,0.00,,,0.00,WeatherCatV1.24B11,2013-06-03 13:40:00,
2013-06-03 08:41:00,72.0,69.5,29.94,North,355,0.0,0.0,92,0.00,,,0.00,WeatherCatV1.15B25,2013-06-03 13:41:00,
2013-06-03 08:45:00,73.2,70.7,29.94,North,355,0.0,0.0,92,0.00,,,0.00,WeatherCatV1.24B11,2013-06-03 13:45:00,
2013-06-03 08:46:00,72.2,69.7,29.94,North,355,0.0,0.0,92,0.00,,,0.00,WeatherCatV1.15B25,2013-06-03 13:46:00,
2013-06-03 08:50:00,73.9,71.4,29.94,North,355,0.0,0.0,92,0.00,,,0.00,WeatherCatV1.24B11,2013-06-03 13:50:00,
2013-06-03 08:51:00,72.9,70.4,29.94,North,355,0.0,0.0,92,0.00,,,0.00,WeatherCatV1.15B25,2013-06-03 13:51:00,
2013-06-03 08:55:00,74.4,71.9,29.94,North,355,0.0,0.0,92,0.00,,,0.00,WeatherCatV1.24B11,2013-06-03 13:55:00,
2013-06-03 08:56:00,73.4,70.9,29.94,North,355,0.0,0.0,92,0.00,,,0.00,WeatherCatV1.15B25,2013-06-03 13:56:00,
2013-06-03 09:00:00,74.4,71.9,29.94,North,355,0.0,1.0,92,0.00,,,0.00,WeatherCatV1.24B11,2013-06-03 14:00:00,
2013-06-03 09:01:00,74.1,71.6,29.94,North,355,0.0,0.0,92,0.00,,,0.00,WeatherCatV1.15B25,2013-06-03 14:01:00,
2013-06-03 09:05:00,74.3,71.5,29.95,NE,39,0.0,0.0,91,0.00,,,0.00,WeatherCatV1.24B11,2013-06-03 14:05:00,
2013-06-03 09:06:00,74.3,71.8,29.94,North,355,0.0,0.0,92,0.00,,,0.00,WeatherCatV1.15B25,2013-06-03 14:06:00,
2013-06-03 09:10:00,74.7,71.9,29.95,ENE,72,0.0,6.0,91,0.00,,,0.00,WeatherCatV1.24B11,2013-06-03 14:10:00,
2013-06-03 09:11:00,74.4,71.9,29.94,North,355,0.0,0.0,92,0.00,,,0.00,WeatherCatV1.15B25,2013-06-03 14:11:00,
2013-06-03 09:15:00,75.2,72.1,29.95,East,90,0.0,0.0,90,0.00,,,0.00,WeatherCatV1.24B11,2013-06-03 14:15:00,
2013-06-03 09:16:00,74.2,71.7,29.95,ENE,78,0.0,3.0,92,0.00,,,0.00,WeatherCatV1.15B25,2013-06-03 14:16:00,
2013-06-03 09:20:00,75.9,72.1,29.95,East,94,0.0,0.0,88,0.00,,,0.00,WeatherCatV1.24B11,2013-06-03 14:20:00,
2013-06-03 09:21:00,74.7,71.9,29.95,East,80,0.0,1.0,91,0.00,,,0.00,WeatherCatV1.15B25,2013-06-03 14:21:00,
2013-06-03 09:25:00,76.4,71.6,29.96,East,95,0.0,0.0,85,0.00,,,0.00,WeatherCatV1.24B11,2013-06-03 14:25:00,
2013-06-03 09:26:00,75.1,72.0,29.95,East,96,0.0,1.0,90,0.00,,,0.00,WeatherCatV1.15B25,2013-06-03 14:26:00,
2013-06-03 09:30:00,76.8,71.2,29.96,East,96,0.0,0.0,83,0.00,,,0.00,WeatherCatV1.24B11,2013-06-03 14:30:00,
2013-06-03 09:31:00,75.8,72.0,29.95,East,96,0.0,1.0,88,0.00,,,0.00,WeatherCatV1.15B25,2013-06-03 14:31:00,
2013-06-03 09:35:00,77.0,71.1,29.95,East,96,0.0,0.0,82,0.00,,,0.00,WeatherCatV1.24B11,2013-06-03 14:35:00,
2013-06-03 09:36:00,76.3,71.8,29.96,East,96,0.0,0.0,86,0.00,,,0.00,WeatherCatV1.15B25,2013-06-03 14:36:00,
2013-06-03 09:40:00,77.0,71.1,29.95,East,96,0.0,0.0,82,0.00,,,0.00,WeatherCatV1.24B11,2013-06-03 14:40:00,
2013-06-03 09:41:00,76.8,71.2,29.96,East,95,0.0,0.0,83,0.00,,,0.00,WeatherCatV1.15B25,2013-06-03 14:41:00,
2013-06-03 09:45:00,77.5,71.2,29.95,East,95,0.0,0.0,81,0.00,,,0.00,WeatherCatV1.24B11,2013-06-03 14:45:00,
2013-06-03 09:46:00,77.0,71.1,29.95,East,96,0.0,0.0,82,0.00,,,0.00,WeatherCatV1.15B25,2013-06-03 14:46:00,
2013-06-03 09:50:00,77.9,70.8,29.95,East,96,0.0,1.0,79,0.00,,,0.00,WeatherCatV1.24B11,2013-06-03 14:50:00,
2013-06-03 09:51:00,77.0,71.1,29.95,East,96,0.0,0.0,82,0.00,,,0.00,WeatherCatV1.15B25,2013-06-03 14:51:00,
2013-06-03 09:55:00,78.7,70.9,29.95,ESE,102,0.0,8.0,77,0.00,,,0.00,WeatherCatV1.24B11,2013-06-03 14:55:00,
2013-06-03 09:56:00,77.4,71.1,29.95,East,95,0.0,1.0,81,0.00,,,0.00,WeatherCatV1.15B25,2013-06-03 14:56:00,
2013-06-03 10:00:00,79.3,70.3,29.95,East,99,1.0,5.0,74,0.00,,,0.00,WeatherCatV1.24B11,2013-06-03 15:00:00,
2013-06-03 10:01:00,78.0,70.9,29.95,East,100,1.0,5.0,79,0.00,,,0.00,WeatherCatV1.15B25,2013-06-03 15:01:00,
2013-06-03 10:05:00,79.5,69.2,29.95,East,97,1.0,7.0,71,0.00,,,0.00,WeatherCatV1.24B11,2013-06-03 15:05:00,
2013-06-03 10:06:00,78.7,70.1,29.95,ESE,122,1.0,8.0,75,0.00,,,0.00,WeatherCatV1.15B25,2013-06-03 15:06:00,
2013-06-03 10:10:00,79.9,70.1,29.95,East,89,1.0,0.0,72,0.00,,,0.00,WeatherCatV1.24B11,2013-06-03 15:10:00,
2013-06-03 10:11:00,79.3,69.9,29.95,East,87,0.0,5.0,73,0.00,,,0.00,WeatherCatV1.15B25,2013-06-03 15:11:00,
2013-06-03 10:15:00,80.4,70.5,29.95,East,87,0.0,1.0,72,0.00,,,0.00,WeatherCatV1.24B11,2013-06-03 15:15:00,
2013-06-03 10:16:00,79.5,69.2,29.95,East,84,5.0,7.0,71,0.00,,,0.00,WeatherCatV1.15B25,2013-06-03 15:16:00,
2013-06-03 10:20:00,81.0,70.7,29.94,East,90,0.0,0.0,71,0.00,,,0.00,WeatherCatV1.24B11,2013-06-03 15:20:00,
2013-06-03 10:21:00,79.9,70.0,29.95,East,86,0.0,0.0,72,0.00,,,0.00,WeatherCatV1.15B25,2013-06-03 15:21:00,
2013-06-03 10:25:00,81.6,70.8,29.94,ENE,77,0.0,0.0,70,0.00,,,0.00,WeatherCatV1.24B11,2013-06-03 15:25:00,
2013-06-03 10:26:00,80.4,70.5,29.95,East,91,0.0,1.0,72,0.00,,,0.00,WeatherCatV1.15B25,2013-06-03 15:26:00,
2013-06-03 10:30:00,81.8,69.3,29.94,ENE,76,0.0,1.0,66,0.00,,,0.00,WeatherCatV1.24B11,2013-06-03 15:30:00,
2013-06-03 10:31:00,81.0,70.7,29.94,East,90,0.0,0.0,71,0.00,,,0.00,WeatherCatV1.15B25,2013-06-03 15:31:00,
2013-06-03 10:35:00,81.8,69.3,29.94,East,87,1.0,1.0,66,0.00,,,0.00,WeatherCatV1.24B11,2013-06-03 15:35:00,
2013-06-03 10:36:00,81.6,70.8,29.94,ENE,67,0.0,1.0,70,0.00,,,0.00,WeatherCatV1.15B25,2013-06-03 15:36:00,
2013-06-03 10:40:00,81.8,70.2,29.94,ESE,103,1.0,2.0,68,0.00,,,0.00,WeatherCatV1.24B11,2013-06-03 15:40:00,
2013-06-03 10:41:00,81.8,69.3,29.94,East,92,0.0,3.0,66,0.00,,,0.00,WeatherCatV1.15B25,2013-06-03 15:41:00,
2013-06-03 10:45:00,81.9,69.8,29.94,ESE,113,0.0,1.0,67,0.00,,,0.00,WeatherCatV1.24B11,2013-06-03 15:45:00,
2013-06-03 10:46:00,81.8,69.3,29.94,East,101,0.0,5.0,66,0.00,,,0.00,WeatherCatV1.15B25,2013-06-03 15:46:00,
2013-06-03 10:50:00,82.3,70.7,29.93,ESE,121,0.0,1.0,68,0.00,,,0.00,WeatherCatV1.24B11,2013-06-03 15:50:00,
2013-06-03 10:51:00,81.8,70.2,29.94,ESE,118,0.0,4.0,68,0.00,,,0.00,WeatherCatV1.15B25,2013-06-03 15:51:00,
2013-06-03 10:55:00,82.3,68.9,29.93,ESE,110,1.0,7.0,64,0.00,,,0.00,WeatherCatV1.24B11,2013-06-03 15:55:00,
2013-06-03 10:56:00,81.8,69.7,29.94,ESE,107,0.0,5.0,67,0.00,,,0.00,WeatherCatV1.15B25,2013-06-03 15:56:00,
2013-06-03 11:00:00,82.5,70.0,29.92,East,101,2.0,6.0,66,0.00,,,0.00,WeatherCatV1.24B11,2013-06-03 16:00:00,
2013-06-03 11:01:00,82.1,70.5,29.93,SE,126,1.0,1.0,68,0.00,,,0.00,WeatherCatV1.15B25,2013-06-03 16:01:00,
2013-06-03 11:05:00,82.9,70.8,29.92,ENE,73,2.0,2.0,67,0.00,,,0.00,WeatherCatV1.24B11,2013-06-03 16:05:00,
2013-06-03 11:06:00,82.4,69.4,29.93,East,98,5.0,8.0,65,0.00,,,0.00,WeatherCatV1.15B25,2013-06-03 16:06:00,
2013-06-03 11:10:00,82.8,68.9,29.92,East,81,2.0,5.0,63,0.00,,,0.00,WeatherCatV1.24B11,2013-06-03 16:10:00,
2013-06-03 11:11:00,82.4,69.9,29.92,ENE,74,0.0,5.0,66,0.00,,,0.00,WeatherCatV1.15B25,2013-06-03 16:11:00,
2013-06-03 11:15:00,83.1,70.1,29.92,East,96,1.0,0.0,65,0.00,,,0.00,WeatherCatV1.24B11,2013-06-03 16:15:00,
2013-06-03 11:16:00,82.8,70.3,29.92,ENE,59,2.0,2.0,66,0.00,,,0.00,WeatherCatV1.15B25,2013-06-03 16:16:00,
2013-06-03 11:20:00,83.2,69.7,29.92,ESE,113,1.0,4.0,64,0.00,,,0.00,WeatherCatV1.24B11,2013-06-03 16:20:00,
2013-06-03 11:21:00,82.9,69.0,29.92,ESE,103,0.0,5.0,63,0.00,,,0.00,WeatherCatV1.15B25,2013-06-03 16:21:00,
2013-06-03 11:25:00,83.4,69.5,29.92,ESE,104,1.0,1.0,63,0.00,,,0.00,WeatherCatV1.24B11,2013-06-03 16:25:00,
2013-06-03 11:26:00,83.0,70.0,29.92,ESE,103,0.0,4.0,65,0.00,,,0.00,WeatherCatV1.15B25,2013-06-03 16:26:00,
2013-06-03 11:30:00,83.8,69.8,29.92,ESE,107,1.0,5.0,63,0.00,,,0.00,WeatherCatV1.24B11,2013-06-03 16:30:00,
2013-06-03 11:31:00,83.2,69.7,29.92,SSE,159,1.0,6.0,64,0.00,,,0.00,WeatherCatV1.15B25,2013-06-03 16:31:00,
2013-06-03 11:35:00,84.1,70.6,29.92,East,101,0.0,0.0,64,0.00,,,0.00,WeatherCatV1.24B11,2013-06-03 16:35:00,
2013-06-03 11:36:00,83.4,69.5,29.92,ESE,107,1.0,2.0,63,0.00,,,0.00,WeatherCatV1.15B25,2013-06-03 16:36:00,
2013-06-03 11:40:00,84.2,69.8,29.92,ESE,107,0.0,1.0,62,0.00,,,0.00,WeatherCatV1.24B11,2013-06-03 16:40:00,
2013-06-03 11:41:00,83.8,69.8,29.92,East,98,0.0,5.0,63,0.00,,,0.00,WeatherCatV1.15B25,2013-06-03 16:41:00,
2013-06-03 11:45:00,84.2,69.3,29.92,ESE,105,1.0,1.0,61,0.00,,,0.00,WeatherCatV1.24B11,2013-06-03 16:45:00,
2013-06-03 11:46:00,84.1,70.6,29.92,East,99,0.0,0.0,64,0.00,,,0.00,WeatherCatV1.15B25,2013-06-03 16:46:00,
2013-06-03 11:50:00,84.4,70.4,29.92,East,96,0.0,1.0,63,0.00,,,0.00,WeatherCatV1.24B11,2013-06-03 16:50:00,
2013-06-03 11:51:00,84.2,69.7,29.92,ESE,122,0.0,3.0,62,0.00,,,0.00,WeatherCatV1.15B25,2013-06-03 16:51:00,
2013-06-03 11:55:00,84.7,70.2,29.92,East,97,0.0,0.0,62,0.00,,,0.00,WeatherCatV1.24B11,2013-06-03 16:55:00,
2013-06-03 11:56:00,84.2,69.3,29.92,East,91,0.0,1.0,61,0.00,,,0.00,WeatherCatV1.15B25,2013-06-03 16:56:00,
2013-06-03 12:00:00,84.9,68.9,29.92,East,97,0.0,5.0,59,0.00,,,0.00,WeatherCatV1.24B11,2013-06-03 17:00:00,
2013-06-03 12:01:00,84.4,70.4,29.92,East,92,0.0,2.0,63,0.00,,,0.00,WeatherCatV1.15B25,2013-06-03 17:01:00,
2013-06-03 12:05:00,84.9,69.4,29.92,East,97,0.0,1.0,60,0.00,,,0.00,WeatherCatV1.24B11,2013-06-03 17:05:00,
2013-06-03 12:06:00,84.7,70.2,29.92,East,98,0.0,0.0,62,0.00,,,0.00,WeatherCatV1.15B25,2013-06-03 17:06:00,
2013-06-03 12:10:00,85.2,69.7,29.91,ESE,112,0.0,0.0,60,0.00,,,0.00,WeatherCatV1.24B11,2013-06-03 17:10:00,
2013-06-03 12:11:00,84.9,68.9,29.92,East,97,0.0,5.0,59,0.00,,,0.00,WeatherCatV1.15B25,2013-06-03 17:11:00,
2013-06-03 12:15:00,85.3,69.8,29.91,ESE,118,0.0,0.0,60,0.00,,,0.00,WeatherCatV1.24B11,2013-06-03 17:15:00,
2013-06-03 12:16:00,84.9,69.4,29.92,East,97,0.0,1.0,60,0.00,,,0.00,WeatherCatV1.15B25,2013-06-03 17:16:00,
2013-06-03 12:20:00,84.9,69.4,29.91,ESE,109,1.0,1.0,60,0.00,,,0.00,WeatherCatV1.24B11,2013-06-03 17:20:00,
2013-06-03 12:21:00,85.2,69.7,29.91,ESE,121,0.0,1.0,60,0.00,,,0.00,WeatherCatV1.15B25,2013-06-03 17:21:00,
2013-06-03 12:25:00,85.1,70.1,29.91,ESE,106,1.0,1.0,61,0.00,,,0.00,WeatherCatV1.24B11,2013-06-03 17:25:00,
2013-06-03 12:26:00,85.4,70.4,29.91,ESE,121,0.0,1.0,61,0.00,,,0.00,WeatherCatV1.15B25,2013-06-03 17:26:00,
2013-06-03 12:30:00,84.8,68.8,29.91,ESE,115,0.0,0.0,59,0.00,,,0.00,WeatherCatV1.24B11,2013-06-03 17:30:00,
2013-06-03 12:31:00,84.9,69.4,29.91,ESE,105,0.0,1.0,60,0.00,,,0.00,WeatherCatV1.15B25,2013-06-03 17:31:00,
2013-06-03 12:35:00,85.3,70.8,29.91,East,96,0.0,4.0,62,0.00,,,0.00,WeatherCatV1.24B11,2013-06-03 17:35:00,
2013-06-03 12:36:00,85.1,70.1,29.91,ESE,105,0.0,0.0,61,0.00,,,0.00,WeatherCatV1.15B25,2013-06-03 17:36:00,
2013-06-03 12:40:00,85.5,70.0,29.90,ENE,67,0.0,0.0,60,0.00,,,0.00,WeatherCatV1.24B11,2013-06-03 17:40:00,
2013-06-03 12:41:00,84.9,68.9,29.91,SE,129,0.0,4.0,59,0.00,,,0.00,WeatherCatV1.15B25,2013-06-03 17:41:00,
2013-06-03 12:45:00,85.7,69.2,29.90,ENE,61,0.0,0.0,58,0.00,,,0.00,WeatherCatV1.24B11,2013-06-03 17:45:00,
2013-06-03 12:46:00,85.2,70.2,29.91,NE,51,0.0,7.0,61,0.00,,,0.00,WeatherCatV1.15B25,2013-06-03 17:46:00,
2013-06-03 12:50:00,86.1,70.1,29.90,ENE,65,0.0,4.0,59,0.00,,,0.00,WeatherCatV1.24B11,2013-06-03 17:50:00,
2013-06-03 12:51:00,85.6,69.6,29.90,NE,51,0.0,1.0,59,0.00,,,0.00,WeatherCatV1.15B25,2013-06-03 17:51:00,
2013-06-03 12:55:00,86.3,68.7,29.89,ENE,69,1.0,2.0,56,0.00,,,0.00,WeatherCatV1.24B11,2013-06-03 17:55:00,
2013-06-03 12:56:00,85.7,70.2,29.90,ENE,60,0.0,1.0,60,0.00,,,0.00,WeatherCatV1.15B25,2013-06-03 17:56:00,
2013-06-03 13:00:00,86.3,68.7,29.89,ESE,110,1.0,1.0,56,0.00,,,0.00,WeatherCatV1.24B11,2013-06-03 18:00:00,
2013-06-03 13:01:00,86.0,70.5,29.90,ENE,71,0.0,4.0,60,0.00,,,0.00,WeatherCatV1.15B25,2013-06-03 18:01:00,
2013-06-03 13:05:00,86.5,69.4,29.89,SE,136,1.0,1.0,57,0.00,,,0.00,WeatherCatV1.24B11,2013-06-03 18:05:00,
2013-06-03 13:06:00,86.2,68.6,29.89,ENE,71,0.0,0.0,56,0.00,,,0.00,WeatherCatV1.15B25,2013-06-03 18:06:00,
2013-06-03 13:10:00,87.0,69.4,29.89,SE,141,0.0,0.0,56,0.00,,,0.00,WeatherCatV1.24B11,2013-06-03 18:10:00,
2013-06-03 13:11:00,86.3,68.7,29.89,SE,145,0.0,3.0,56,0.00,,,0.00,WeatherCatV1.15B25,2013-06-03 18:11:00,
2013-06-03 13:15:00,87.3,68.6,29.89,SE,124,0.0,0.0,54,0.00,,,0.00,WeatherCatV1.24B11,2013-06-03 18:15:00,
2013-06-03 13:16:00,86.4,68.8,29.89,SE,146,0.0,1.0,56,0.00,,,0.00,WeatherCatV1.15B25,2013-06-03 18:16:00,
2013-06-03 13:20:00,87.5,68.2,29.88,ESE,114,1.0,1.0,53,0.00,,,0.00,WeatherCatV1.24B11,2013-06-03 18:20:00,
2013-06-03 13:21:00,87.1,69.5,29.89,SE,144,0.0,0.0,56,0.00,,,0.00,WeatherCatV1.15B25,2013-06-03 18:21:00,
2013-06-03 13:25:00,87.0,67.8,29.88,ESE,116,0.0,0.0,53,0.00,,,0.00,WeatherCatV1.24B11,2013-06-03 18:25:00,
2013-06-03 13:26:00,87.3,68.6,29.89,ESE,110,4.0,8.0,54,0.00,,,0.00,WeatherCatV1.15B25,2013-06-03 18:26:00,
2013-06-03 13:30:00,87.1,68.4,29.88,ESE,118,0.0,1.0,54,0.00,,,0.00,WeatherCatV1.24B11,2013-06-03 18:30:00,
2013-06-03 13:31:00,87.6,68.3,29.88,ESE,110,0.0,1.0,53,0.00,,,0.00,WeatherCatV1.15B25,2013-06-03 18:31:00,
2013-06-03 13:35:00,87.1,68.4,29.88,ESE,122,0.0,4.0,54,0.00,,,0.00,WeatherCatV1.24B11,2013-06-03 18:35:00,
2013-06-03 13:36:00,87.0,67.8,29.88,ESE,118,0.0,0.0,53,0.00,,,0.00,WeatherCatV1.15B25,2013-06-03 18:36:00,
2013-06-03 13:40:00,87.8,69.0,29.88,ESE,118,1.0,1.0,54,0.00,,,0.00,WeatherCatV1.24B11,2013-06-03 18:40:00,
2013-06-03 13:41:00,87.1,68.4,29.88,ESE,119,0.0,1.0,54,0.00,,,0.00,WeatherCatV1.15B25,2013-06-03 18:41:00,
2013-06-03 13:45:00,88.4,69.1,29.87,East,101,1.0,1.0,53,0.00,,,0.00,WeatherCatV1.24B11,2013-06-03 18:45:00,
2013-06-03 13:46:00,87.1,68.4,29.88,SE,127,3.0,4.0,54,0.00,,,0.00,WeatherCatV1.15B25,2013-06-03 18:46:00,
2013-06-03 13:50:00,88.6,68.1,29.87,East,96,0.0,5.0,51,0.00,,,0.00,WeatherCatV1.24B11,2013-06-03 18:50:00,
2013-06-03 13:51:00,87.8,69.0,29.88,ESE,116,0.0,1.0,54,0.00,,,0.00,WeatherCatV1.15B25,2013-06-03 18:51:00,
2013-06-03 13:55:00,89.1,69.1,29.87,East,91,0.0,8.0,52,0.00,,,0.00,WeatherCatV1.24B11,2013-06-03 18:55:00,
2013-06-03 13:56:00,88.4,67.9,29.87,East,93,0.0,1.0,51,0.00,,,0.00,WeatherCatV1.15B25,2013-06-03 18:56:00,
2013-06-03 14:00:00,88.8,69.4,29.87,East,97,1.0,1.0,53,0.00,,,0.00,WeatherCatV1.24B11,2013-06-03 19:00:00,
2013-06-03 14:01:00,88.6,68.1,29.87,East,96,0.0,5.0,51,0.00,,,0.00,WeatherCatV1.15B25,2013-06-03 19:01:00,
2013-06-03 14:05:00,88.9,68.4,29.87,ESE,114,1.0,5.0,51,0.00,,,0.00,WeatherCatV1.24B11,2013-06-03 19:05:00,
2013-06-03 14:06:00,89.0,69.6,29.87,East,88,1.0,1.0,53,0.00,,,0.00,WeatherCatV1.15B25,2013-06-03 19:06:00,
2013-06-03 14:10:00,88.9,68.4,29.87,ESE,112,1.0,0.0,51,0.00,,,0.00,WeatherCatV1.24B11,2013-06-03 19:10:00,
2013-06-03 14:11:00,88.9,69.5,29.87,East,101,0.0,5.0,53,0.00,,,0.00,WeatherCatV1.15B25,2013-06-03 19:11:00,
2013-06-03 14:15:00,89.1,68.6,29.86,ESE,114,1.0,1.0,51,0.00,,,0.00,WeatherCatV1.24B11,2013-06-03 19:15:00,
2013-06-03 14:16:00,89.0,68.5,29.87,East,91,0.0,6.0,51,0.00,,,0.00,WeatherCatV1.15B25,2013-06-03 19:16:00,
2013-06-03 14:20:00,89.4,68.3,29.86,ESE,114,0.0,0.0,50,0.00,,,0.00,WeatherCatV1.24B11,2013-06-03 19:20:00,
2013-06-03 14:21:00,88.9,68.4,29.87,ESE,115,0.0,4.0,51,0.00,,,0.00,WeatherCatV1.15B25,2013-06-03 19:21:00,
2013-06-03 14:25:00,89.4,67.1,29.86,SE,133,0.0,1.0,48,0.00,,,0.00,WeatherCatV1.24B11,2013-06-03 19:25:00,
2013-06-03 14:26:00,89.1,68.6,29.86,ESE,114,0.0,1.0,51,0.00,,,0.00,WeatherCatV1.15B25,2013-06-03 19:26:00,
2013-06-03 14:28:00,89.2,69.2,29.87,ESE,114,0.0,2.0,52,0.00,,,0.00,WeatherCatV1.15B25,2013-06-03 19:28:00,
2013-06-03 14:30:00,88.8,66.5,29.86,East,95,1.0,4.0,48,0.00,,,0.00,WeatherCatV1.24B11,2013-06-03 19:30:00,
2013-06-03 14:33:00,89.5,68.4,29.86,ESE,115,0.0,0.0,50,0.00,,,0.00,WeatherCatV1.15B25,2013-06-03 19:33:00,
2013-06-03 14:35:00,88.4,66.8,29.86,North,2,1.0,1.0,49,0.00,,,0.00,WeatherCatV1.24B11,2013-06-03 19:35:00,
2013-06-03 14:38:00,89.4,67.1,29.86,SE,145,0.0,1.0,48,0.00,,,0.00,WeatherCatV1.15B25,2013-06-03 19:38:00,
2013-06-03 14:40:00,88.8,66.5,29.86,NNE,21,1.0,3.0,48,0.00,,,0.00,WeatherCatV1.24B11,2013-06-03 19:40:00,
2013-06-03 14:43:00,88.7,66.4,29.86,WNW,292,3.0,4.0,48,0.00,,,0.00,WeatherCatV1.15B25,2013-06-03 19:43:00,
2013-06-03 14:45:00,89.1,66.2,29.85,NE,45,0.0,1.0,47,0.00,,,0.00,WeatherCatV1.24B11,2013-06-03 19:45:00,
2013-06-03 14:48:00,88.4,66.8,29.86,NNW,327,1.0,1.0,49,0.00,,,0.00,WeatherCatV1.15B25,2013-06-03 19:48:00,
2013-06-03 14:50:00,89.3,65.8,29.85,NE,52,0.0,2.0,46,0.00,,,0.00,WeatherCatV1.24B11,2013-06-03 19:50:00,
2013-06-03 14:53:00,88.9,66.0,29.86,NE,55,0.0,1.0,47,0.00,,,0.00,WeatherCatV1.15B25,2013-06-03 19:53:00,
2013-06-03 14:55:00,89.9,66.9,29.85,NE,54,0.0,2.0,47,0.00,,,0.00,WeatherCatV1.24B11,2013-06-03 19:55:00,
2013-06-03 14:58:00,89.2,65.7,29.85,NE,55,0.0,1.0,46,0.00,,,0.00,WeatherCatV1.15B25,2013-06-03 19:58:00,
2013-06-03 15:00:00,90.2,67.8,29.84,ENE,73,0.0,1.0,48,0.00,,,0.00,WeatherCatV1.24B11,2013-06-03 20:00:00,
2013-06-03 15:03:00,89.5,65.3,29.85,NE,55,0.0,1.0,45,0.00,,,0.00,WeatherCatV1.15B25,2013-06-03 20:03:00,
2013-06-03 15:05:00,90.6,65.7,29.84,East,81,0.0,0.0,44,0.00,,,0.00,WeatherCatV1.24B11,2013-06-03 20:05:00,
2013-06-03 15:08:00,90.0,66.4,29.85,East,84,1.0,5.0,46,0.00,,,0.00,WeatherCatV1.15B25,2013-06-03 20:08:00,
2013-06-03 15:10:00,91.2,68.1,29.84,East,90,0.0,0.0,47,0.00,,,0.00,WeatherCatV1.24B11,2013-06-03 20:10:00,
2013-06-03 15:13:00,90.4,66.1,29.84,East,84,0.0,1.0,45,0.00,,,0.00,WeatherCatV1.15B25,2013-06-03 20:13:00,
2013-06-03 15:15:00,91.4,67.0,29.83,ESE,107,0.0,2.0,45,0.00,,,0.00,WeatherCatV1.24B11,2013-06-03 20:15:00,
2013-06-03 15:18:00,90.9,66.6,29.84,East,86,0.0,1.0,45,0.00,,,0.00,WeatherCatV1.15B25,2013-06-03 20:18:00,
2013-06-03 15:20:00,91.4,67.7,29.83,ESE,118,0.0,6.0,46,0.00,,,0.00,WeatherCatV1.24B11,2013-06-03 20:20:00,
2013-06-03 15:23:00,91.3,66.9,29.84,ESE,114,0.0,1.0,45,0.00,,,0.00,WeatherCatV1.15B25,2013-06-03 20:23:00,
2013-06-03 15:25:00,91.7,68.6,29.83,East,98,0.0,1.0,47,0.00,,,0.00,WeatherCatV1.24B11,2013-06-03 20:25:00,
2013-06-03 15:28:00,91.3,66.3,29.83,ESE,114,0.0,2.0,44,0.00,,,0.00,WeatherCatV1.15B25,2013-06-03 20:28:00,
2013-06-03 15:30:00,91.4,67.0,29.83,ESE,114,2.0,3.0,45,0.00,,,0.00,WeatherCatV1.15B25,2013-06-03 20:30:00,
2013-06-03 15:35:00,91.6,69.1,29.83,NE,51,0.0,4.0,48,0.00,,,0.00,WeatherCatV1.15B25,2013-06-03 20:35:00,
2013-06-03 15:40:00,91.8,68.7,29.82,SSE,152,0.0,1.0,47,0.00,,,0.00,WeatherCatV1.15B25,2013-06-03 20:40:00,
2013-06-03 15:45:00,91.9,68.1,29.82,ESE,123,0.0,1.0,46,0.00,,,0.00,WeatherCatV1.15B25,2013-06-03 20:45:00,
2013-06-03 15:50:00,91.7,68.6,29.81,ESE,123,3.0,5.0,47,0.00,,,0.00,WeatherCatV1.15B25,2013-06-03 20:50:00,
2013-06-03 15:55:00,91.8,68.0,29.81,East,80,3.0,7.0,46,0.00,,,0.00,WeatherCatV1.15B25,2013-06-03 20:55:00,
2013-06-03 16:00:00,92.0,68.8,29.81,ESE,102,1.0,2.0,47,0.00,,,0.00,WeatherCatV1.15B25,2013-06-03 21:00:00,
2013-06-03 16:05:00,92.4,69.2,29.81,SE,146,1.0,3.0,47,0.00,,,0.00,WeatherCatV1.15B25,2013-06-03 21:05:00,
2013-06-03 16:10:00,92.6,68.7,29.81,SSE,150,0.0,1.0,46,0.00,,,0.00,WeatherCatV1.15B25,2013-06-03 21:10:00,
2013-06-03 16:15:00,92.9,67.1,29.80,SSE,148,1.0,1.0,43,0.00,,,0.00,WeatherCatV1.15B25,2013-06-03 21:15:00,
2013-06-03 16:20:00,93.1,67.9,29.80,SE,146,0.0,3.0,44,0.00,,,0.00,WeatherCatV1.15B25,2013-06-03 21:20:00,
2013-06-03 16:25:00,93.0,67.1,29.80,NNE,24,0.0,1.0,43,0.00,,,0.00,WeatherCatV1.15B25,2013-06-03 21:25:00,
2013-06-03 16:30:00,92.9,67.7,29.80,East,98,2.0,8.0,44,0.00,,,0.00,WeatherCatV1.15B25,2013-06-03 21:30:00,
2013-06-03 16:35:00,93.1,67.2,29.80,SE,141,0.0,2.0,43,0.00,,,0.00,WeatherCatV1.15B25,2013-06-03 21:35:00,
2013-06-03 16:40:00,93.2,65.9,29.80,East,98,1.0,8.0,41,0.00,,,0.00,WeatherCatV1.15B25,2013-06-03 21:40:00,
2013-06-03 16:45:00,93.2,65.2,29.80,East,99,0.0,3.0,40,0.00,,,0.00,WeatherCatV1.15B25,2013-06-03 21:45:00,
2013-06-03 16:50:00,93.3,65.3,29.80,ESE,115,1.0,3.0,40,0.00,,,0.00,WeatherCatV1.15B25,2013-06-03 21:50:00,
2013-06-03 16:55:00,93.5,64.0,29.80,ESE,117,0.0,3.0,38,0.00,,,0.00,WeatherCatV1.15B25,2013-06-03 21:55:00,
2013-06-03 17:00:00,93.4,63.9,29.80,ESE,110,0.0,3.0,38,0.00,,,0.00,WeatherCatV1.15B25,2013-06-03 22:00:00,
2013-06-03 17:05:00,93.5,64.8,29.80,ESE,111,0.0,4.0,39,0.00,,,0.00,WeatherCatV1.15B25,2013-06-03 22:05:00,
2013-06-03 17:10:00,93.4,63.9,29.80,SE,144,1.0,6.0,38,0.00,,,0.00,WeatherCatV1.15B25,2013-06-03 22:10:00,
2013-06-03 17:15:00,93.3,63.1,29.79,South,178,0.0,7.0,37,0.00,,,0.00,WeatherCatV1.15B25,2013-06-03 22:15:00,
2013-06-03 17:20:00,93.3,63.9,29.79,ESE,114,2.0,4.0,38,0.00,,,0.00,WeatherCatV1.15B25,2013-06-03 22:20:00,
2013-06-03 17:25:00,93.4,63.2,29.79,ESE,116,1.0,5.0,37,0.00,,,0.00,WeatherCatV1.15B25,2013-06-03 22:25:00,
2013-06-03 17:30:00,93.4,62.4,29.79,ESE,115,0.0,4.0,36,0.00,,,0.00,WeatherCatV1.15B25,2013-06-03 22:30:00,
2013-06-03 17:35:00,93.7,63.4,29.79,ESE,117,1.0,2.0,37,0.00,,,0.00,WeatherCatV1.15B25,2013-06-03 22:35:00,
2013-06-03 17:40:00,93.7,64.9,29.79,ESE,122,0.0,1.0,39,0.00,,,0.00,WeatherCatV1.15B25,2013-06-03 22:40:00,
2013-06-03 17:45:00,94.1,66.0,29.79,ESE,122,0.0,0.0,40,0.00,,,0.00,WeatherCatV1.15B25,2013-06-03 22:45:00,
2013-06-03 17:50:00,93.7,64.2,29.79,East,95,1.0,6.0,38,0.00,,,0.00,WeatherCatV1.15B25,2013-06-03 22:50:00,
2013-06-03 17:55:00,93.4,63.9,29.79,SE,127,0.0,1.0,38,0.00,,,0.00,WeatherCatV1.15B25,2013-06-03 22:55:00,
2013-06-03 18:00:00,93.8,65.0,29.79,SE,126,2.0,2.0,39,0.00,,,0.00,WeatherCatV1.15B25,2013-06-03 23:00:00,
2013-06-03 18:05:00,93.8,65.0,29.79,SE,125,0.0,0.0,39,0.00,,,0.00,WeatherCatV1.15B25,2013-06-03 23:05:00,
2013-06-03 18:10:00,93.7,66.4,29.79,SE,125,0.0,0.0,41,0.00,,,0.00,WeatherCatV1.15B25,2013-06-03 23:10:00,
2013-06-03 18:15:00,93.5,64.8,29.79,SE,126,0.0,0.0,39,0.00,,,0.00,WeatherCatV1.15B25,2013-06-03 23:15:00,
2013-06-03 18:20:00,93.5,64.8,29.79,SE,126,0.0,0.0,39,0.00,,,0.00,WeatherCatV1.15B25,2013-06-03 23:20:00,
2013-06-03 18:25:00,93.5,65.5,29.79,SE,126,0.0,1.0,40,0.00,,,0.00,WeatherCatV1.15B25,2013-06-03 23:25:00,
2013-06-03 18:30:00,93.5,64.8,29.79,SE,127,0.0,1.0,39,0.00,,,0.00,WeatherCatV1.15B25,2013-06-03 23:30:00,
2013-06-03 18:35:00,93.5,66.9,29.79,SE,140,0.0,3.0,42,0.00,,,0.00,WeatherCatV1.15B25,2013-06-03 23:35:00,
2013-06-03 18:40:00,93.3,68.1,29.79,SE,140,0.0,1.0,44,0.00,,,0.00,WeatherCatV1.15B25,2013-06-03 23:40:00,
2013-06-03 18:45:00,93.2,68.0,29.79,SE,140,0.0,0.0,44,0.00,,,0.00,WeatherCatV1.15B25,2013-06-03 23:45:00,
2013-06-03 18:50:00,93.2,68.0,29.79,SE,141,0.0,1.0,44,0.00,,,0.00,WeatherCatV1.15B25,2013-06-03 23:50:00,
2013-06-03 18:55:00,92.8,68.3,29.79,SSE,149,0.0,2.0,45,0.00,,,0.00,WeatherCatV1.15B25,2013-06-03 23:55:00,
2013-06-03 19:00:00,92.5,68.0,29.79,SSE,150,0.0,0.0,45,0.00,,,0.00,WeatherCatV1.15B25,2013-06-04 00:00:00,
2013-06-03 19:05:00,92.3,68.5,29.79,SSE,150,0.0,1.0,46,0.00,,,0.00,WeatherCatV1.15B25,2013-06-04 00:05:00,
2013-06-03 19:10:00,92.0,68.8,29.79,SSE,151,0.0,1.0,47,0.00,,,0.00,WeatherCatV1.15B25,2013-06-04 00:10:00,
2013-06-03 19:15:00,91.8,68.0,29.80,SSE,150,0.0,0.0,46,0.00,,,0.00,WeatherCatV1.15B25,2013-06-04 00:15:00,
2013-06-03 19:20:00,91.5,68.4,29.80,SSE,150,0.0,1.0,47,0.00,,,0.00,WeatherCatV1.15B25,2013-06-04 00:20:00,
2013-06-03 19:25:00,91.4,68.3,29.80,SSE,150,0.0,1.0,47,0.00,,,0.00,WeatherCatV1.15B25,2013-06-04 00:25:00,
2013-06-03 19:30:00,91.3,69.4,29.80,SSE,151,0.0,0.0,49,0.00,,,0.00,WeatherCatV1.15B25,2013-06-04 00:30:00,
2013-06-03 19:35:00,91.2,68.7,29.80,SSE,151,0.0,0.0,48,0.00,,,0.00,WeatherCatV1.15B25,2013-06-04 00:35:00,
2013-06-03 19:40:00,91.1,68.6,29.80,SSE,151,0.0,0.0,48,0.00,,,0.00,WeatherCatV1.15B25,2013-06-04 00:40:00,
2013-06-03 19:45:00,90.9,69.6,29.80,SSE,151,0.0,0.0,50,0.00,,,0.00,WeatherCatV1.15B25,2013-06-04 00:45:00,
2013-06-03 19:50:00,90.8,70.1,29.80,SSE,151,0.0,0.0,51,0.00,,,0.00,WeatherCatV1.15B25,2013-06-04 00:50:00,
2013-06-03 19:55:00,90.7,70.6,29.80,SSE,151,0.0,0.0,52,0.00,,,0.00,WeatherCatV1.15B25,2013-06-04 00:55:00,
2013-06-03 20:00:00,90.8,70.7,29.80,SSE,151,0.0,0.0,52,0.00,,,0.00,WeatherCatV1.15B25,2013-06-04 01:00:00,
2013-06-03 20:05:00,90.7,71.7,29.80,SSE,150,0.0,0.0,54,0.00,,,0.00,WeatherCatV1.15B25,2013-06-04 01:05:00,
2013-06-03 20:10:00,90.4,71.4,29.80,SSE,150,0.0,0.0,54,0.00,,,0.00,WeatherCatV1.15B25,2013-06-04 01:10:00,
2013-06-03 20:15:00,89.7,71.3,29.80,SSE,150,0.0,0.0,55,0.00,,,0.00,WeatherCatV1.15B25,2013-06-04 01:15:00,
2013-06-03 20:20:00,88.5,70.8,29.80,SSE,151,0.0,0.0,56,0.00,,,0.00,WeatherCatV1.15B25,2013-06-04 01:20:00,
2013-06-03 20:25:00,87.0,70.4,29.80,SSE,151,0.0,0.0,58,0.00,,,0.00,WeatherCatV1.15B25,2013-06-04 01:25:00,
2013-06-03 20:30:00,85.7,69.7,29.81,SSE,150,0.0,0.0,59,0.00,,,0.00,WeatherCatV1.15B25,2013-06-04 01:30:00,
2013-06-03 20:35:00,84.9,69.9,29.81,SSE,151,0.0,0.0,61,0.00,,,0.00,WeatherCatV1.15B25,2013-06-04 01:35:00,
2013-06-03 20:40:00,84.1,70.1,29.81,SSE,150,0.0,0.0,63,0.00,,,0.00,WeatherCatV1.15B25,2013-06-04 01:40:00,
2013-06-03 20:45:00,83.2,69.7,29.81,SSE,150,0.0,0.0,64,0.00,,,0.00,WeatherCatV1.15B25,2013-06-04 01:45:00,
2013-06-03 20:50:00,82.5,69.5,29.81,SSE,150,0.0,0.0,65,0.00,,,0.00,WeatherCatV1.15B25,2013-06-04 01:50:00,
2013-06-03 20:55:00,81.8,69.3,29.81,SSE,151,0.0,0.0,66,0.00,,,0.00,WeatherCatV1.15B25,2013-06-04 01:55:00,
2013-06-03 21:00:00,80.9,69.3,29.82,SSE,150,0.0,0.0,68,0.00,,,0.00,WeatherCatV1.15B25,2013-06-04 02:00:00,
2013-06-03 21:05:00,80.1,69.0,29.82,SSE,151,0.0,0.0,69,0.00,,,0.00,WeatherCatV1.15B25,2013-06-04 02:05:00,
2013-06-03 21:10:00,79.3,69.1,29.82,SSE,151,0.0,0.0,71,0.00,,,0.00,WeatherCatV1.15B25,2013-06-04 02:10:00,
2013-06-03 21:15:00,78.6,68.8,29.82,SSE,151,0.0,0.0,72,0.00,,,0.00,WeatherCatV1.15B25,2013-06-04 02:15:00,
2013-06-03 21:20:00,78.0,69.0,29.82,SSE,150,0.0,0.0,74,0.00,,,0.00,WeatherCatV1.15B25,2013-06-04 02:20:00,
2013-06-03 21:25:00,77.5,68.5,29.82,SSE,150,0.0,0.0,74,0.00,,,0.00,WeatherCatV1.15B25,2013-06-04 02:25:00,
2013-06-03 21:30:00,77.1,68.5,29.83,SSE,151,0.0,0.0,75,0.00,,,0.00,WeatherCatV1.15B25,2013-06-04 02:30:00,
2013-06-03 21:35:00,76.8,68.6,29.83,SSE,151,0.0,0.0,76,0.00,,,0.00,WeatherCatV1.15B25,2013-06-04 02:35:00,
2013-06-03 21:40:00,76.5,68.7,29.83,SSE,151,0.0,0.0,77,0.00,,,0.00,WeatherCatV1.15B25,2013-06-04 02:40:00,
2013-06-03 21:45:00,76.2,68.4,29.83,SSE,151,0.0,0.0,77,0.00,,,0.00,WeatherCatV1.15B25,2013-06-04 02:45:00,
2013-06-03 21:50:00,76.0,68.3,29.83,SSE,150,0.0,0.0,77,0.00,,,0.00,WeatherCatV1.15B25,2013-06-04 02:50:00,
2013-06-03 21:55:00,75.8,68.4,29.83,SSE,150,0.0,0.0,78,0.00,,,0.00,WeatherCatV1.15B25,2013-06-04 02:55:00,
2013-06-03 22:00:00,75.6,68.2,29.83,SSE,150,0.0,0.0,78,0.00,,,0.00,WeatherCatV1.15B25,2013-06-04 03:00:00,
2013-06-03 22:05:00,75.3,67.9,29.83,SSE,151,0.0,0.0,78,0.00,,,0.00,WeatherCatV1.15B25,2013-06-04 03:05:00,
2013-06-03 22:10:00,75.1,68.1,29.83,SSE,151,0.0,0.0,79,0.00,,,0.00,WeatherCatV1.15B25,2013-06-04 03:10:00,
2013-06-03 22:15:00,74.9,67.9,29.83,SSE,151,0.0,0.0,79,0.00,,,0.00,WeatherCatV1.15B25,2013-06-04 03:15:00,
2013-06-03 22:20:00,74.6,67.6,29.83,SSE,151,0.0,0.0,79,0.00,,,0.00,WeatherCatV1.15B25,2013-06-04 03:20:00,
2013-06-03 22:25:00,74.4,67.4,29.83,SSE,151,0.0,0.0,79,0.00,,,0.00,WeatherCatV1.15B25,2013-06-04 03:25:00,
2013-06-03 22:30:00,74.1,67.5,29.84,SSE,151,0.0,0.0,80,0.00,,,0.00,WeatherCatV1.15B25,2013-06-04 03:30:00,
2013-06-03 22:35:00,73.9,67.3,29.84,SSE,151,0.0,0.0,80,0.00,,,0.00,WeatherCatV1.15B25,2013-06-04 03:35:00,
2013-06-03 22:40:00,73.6,67.0,29.84,SSE,151,0.0,0.0,80,0.00,,,0.00,WeatherCatV1.15B25,2013-06-04 03:40:00,
2013-06-03 22:45:00,73.6,67.4,29.84,East,89,0.0,5.0,81,0.00,,,0.00,WeatherCatV1.15B25,2013-06-04 03:45:00,
2013-06-03 22:50:00,74.0,67.4,29.85,East,89,0.0,1.0,80,0.00,,,0.00,WeatherCatV1.15B25,2013-06-04 03:50:00,
2013-06-03 22:55:00,74.6,68.0,29.85,ESE,115,0.0,2.0,80,0.00,,,0.00,WeatherCatV1.15B25,2013-06-04 03:55:00,
2013-06-03 23:00:00,75.2,68.6,29.85,ESE,111,0.0,1.0,80,0.00,,,0.00,WeatherCatV1.15B25,2013-06-04 04:00:00,
2013-06-03 23:01:00,75.2,68.6,29.85,ESE,110,0.0,1.0,80,0.00,,,0.00,WeatherCatV1.15B25,2013-06-04 04:01:00,
2013-06-03 23:05:00,76.2,69.6,29.85,East,100,0.0,1.0,80,0.00,,,0.00,WeatherCatV1.24B11,2013-06-04 04:05:00,
2013-06-03 23:06:00,75.7,69.1,29.85,East,99,0.0,1.0,80,0.00,,,0.00,WeatherCatV1.15B25,2013-06-04 04:06:00,
2013-06-03 23:10:00,76.2,69.6,29.85,East,100,0.0,0.0,80,0.00,,,0.00,WeatherCatV1.24B11,2013-06-04 04:10:00,
2013-06-03 23:11:00,76.0,69.4,29.85,East,100,0.0,0.0,80,0.00,,,0.00,WeatherCatV1.15B25,2013-06-04 04:11:00,
2013-06-03 23:15:00,76.1,69.1,29.85,East,100,0.0,0.0,79,0.00,,,0.00,WeatherCatV1.24B11,2013-06-04 04:15:00,
2013-06-03 23:16:00,76.2,69.6,29.85,East,100,0.0,1.0,80,0.00,,,0.00,WeatherCatV1.15B25,2013-06-04 04:16:00,
2013-06-03 23:20:00,75.9,68.9,29.85,East,100,0.0,0.0,79,0.00,,,0.00,WeatherCatV1.24B11,2013-06-04 04:20:00,
2013-06-03 23:21:00,76.2,69.6,29.85,East,100,0.0,0.0,80,0.00,,,0.00,WeatherCatV1.15B25,2013-06-04 04:21:00,
2013-06-03 23:25:00,75.7,69.1,29.85,ESE,103,0.0,0.0,80,0.00,,,0.00,WeatherCatV1.24B11,2013-06-04 04:25:00,
2013-06-03 23:26:00,76.1,69.1,29.85,East,100,0.0,0.0,79,0.00,,,0.00,WeatherCatV1.15B25,2013-06-04 04:26:00,
2013-06-03 23:30:00,75.6,69.3,29.85,ESE,104,0.0,1.0,81,0.00,,,0.00,WeatherCatV1.24B11,2013-06-04 04:30:00,
2013-06-03 23:31:00,75.9,68.9,29.85,ESE,104,0.0,1.0,79,0.00,,,0.00,WeatherCatV1.15B25,2013-06-04 04:31:00,
2013-06-03 23:35:00,75.5,69.2,29.85,ESE,105,0.0,0.0,81,0.00,,,0.00,WeatherCatV1.24B11,2013-06-04 04:35:00,
2013-06-03 23:36:00,75.7,69.1,29.85,ESE,104,0.0,0.0,80,0.00,,,0.00,WeatherCatV1.15B25,2013-06-04 04:36:00,
2013-06-03 23:40:00,75.4,69.5,29.85,ESE,105,0.0,1.0,82,0.00,,,0.00,WeatherCatV1.24B11,2013-06-04 04:40:00,
2013-06-03 23:41:00,75.6,69.3,29.85,ESE,105,1.0,1.0,81,0.00,,,0.00,WeatherCatV1.15B25,2013-06-04 04:41:00,
2013-06-03 23:45:00,75.2,69.3,29.86,ESE,105,0.0,0.0,82,0.00,,,0.00,WeatherCatV1.24B11,2013-06-04 04:45:00,
2013-06-03 23:46:00,75.5,69.2,29.85,ESE,105,0.0,0.0,81,0.00,,,0.00,WeatherCatV1.15B25,2013-06-04 04:46:00,
2013-06-03 23:50:00,74.9,69.0,29.85,ESE,105,0.0,0.0,82,0.00,,,0.00,WeatherCatV1.24B11,2013-06-04 04:50:00,
2013-06-03 23:51:00,75.4,69.5,29.85,ESE,105,0.0,1.0,82,0.00,,,0.00,WeatherCatV1.15B25,2013-06-04 04:51:00,
2013-06-03 23:55:00,74.7,69.2,29.85,ESE,105,0.0,0.0,83,0.00,,,0.00,WeatherCatV1.24B11,2013-06-04 04:55:00,
2013-06-03 23:56:00,75.2,69.3,29.86,ESE,105,0.0,0.0,82,0.00,,,0.00,WeatherCatV1.15B25,2013-06-04 04:56:00,